Depesze METAR lotnisk w Polsce

EPWA EPMO EPKK EPLL EPWR EPKT EPGD EPPO EPRZ EPSC EPLB EPBY EPZG EPSY EPCE EPDA EPDE EPIR EPKS EPLK EPLY EPMB EPMI EPMM EPNA EPOK EPPR EPPW EPRA EPSN EPTM

METAR – format kodowanego raportu o pogodzie używany w meteorologii lotniczej i prognozie pogody. METAR jest akronimem od ang. Meteorological Aerodrome Report. Typowy METAR zawiera informację o temperaturze, ciśnieniu, temperaturze punktu rosy, sile i kierunku wiatru, opadzie, pokrywie chmur, wysokości podstawy chmur, widzialności, lecz może zawierać też inne informacje (np. stan dróg startowych).

Warszawa-Okęcie (EPWA)

METAR = EPWA 170830Z VRB02KT 3500 BR BKN003 07/07 Q1017 BECMG 5000 BR BKN005

STACJA........... EPWA - Warszawa-Okęcie (WAW)
POMIAR........... Sat Apr 17, 10:30 CEST
WIATR............ zmienny z prędkością 4 km/h
WIDZIALNOŚĆ...... 3500 metrów
WARUNKI.......... zamglenie 
CHMURY........... zachmurzenie średnie (5/8-7/8)
TEMPERATURA...... 7°C
T.PUNKTU ROSY.... 7°C
WILGOTNOŚĆ....... 100%
CIŚNIENIE........ 1017 hPa
CIŚN.BEZWZGL..... 1003 hPa
PROGNOZA......... nastąpi zmiana widzialności do 5000 metrów

Sprawdź też: Prognoza pogody Warszawa


Warszawa-Modlin (EPMO)

METAR = EPMO 170830Z 04006KT 010V070 8000 BKN006 09/09 Q1017 =

STACJA........... EPMO - Warszawa-Modlin (WMI)
POMIAR........... Sat Apr 17, 10:30 CEST
WIATR............ północno-wschodni (NE) z prędkością 11 km/h
WIDZIALNOŚĆ...... 8000 metrów
CHMURY........... zachmurzenie średnie (5/8-7/8)
TEMPERATURA...... 9°C
T.PUNKTU ROSY.... 9°C
WILGOTNOŚĆ....... 100%
T.ODCZUWALNA..... 7°C
CIŚNIENIE........ 1017 hPa
CIŚN.BEZWZGL..... 1004 hPa

Sprawdź też: Prognoza pogody Nowy Dwór Mazowiecki


Kraków-Balice (EPKK)

METAR = EPKK 170830Z 24009KT 9999 OVC007 04/02 Q1019

STACJA........... EPKK - Kraków-Balice (KRK)
POMIAR........... Sat Apr 17, 10:30 CEST
WIATR............ zachodni południowo-zachodni (WSW) z prędkością 17 km/h
WIDZIALNOŚĆ...... powyżej 10 kilometrów
CHMURY........... zachmurzenie całkowite (8/8)
TEMPERATURA...... 4°C
T.PUNKTU ROSY.... 2°C
WILGOTNOŚĆ....... 87%
T.ODCZUWALNA..... 0°C
CIŚNIENIE........ 1019 hPa
CIŚN.BEZWZGL..... 989 hPa

Sprawdź też: Prognoza pogody Kraków


Łódź-Lublinek (EPLL)

METAR = EPLL 170830Z 31005KT 4300 BR OVC002 05/04 Q1018

STACJA........... EPLL - Łódź-Lublinek (LCJ)
POMIAR........... Sat Apr 17, 10:30 CEST
WIATR............ północno zachodni (NW) z prędkością 9 km/h
WIDZIALNOŚĆ...... 4300 metrów
WARUNKI.......... zamglenie 
CHMURY........... zachmurzenie całkowite (8/8)
TEMPERATURA...... 5°C
T.PUNKTU ROSY.... 4°C
WILGOTNOŚĆ....... 93%
T.ODCZUWALNA..... 3°C
CIŚNIENIE........ 1018 hPa
CIŚN.BEZWZGL..... 995 hPa

Sprawdź też: Prognoza pogody Łódź


Wrocław-Strachowice (EPWR)

METAR = EPWR 170830Z 30007KT 8000 OVC003 04/03 Q1020

STACJA........... EPWR - Wrocław-Strachowice (WRO)
POMIAR........... Sat Apr 17, 10:30 CEST
WIATR............ zachodni północno-zachodni (WNW) z prędkością 13 km/h
WIDZIALNOŚĆ...... 8000 metrów
CHMURY........... zachmurzenie całkowite (8/8)
TEMPERATURA...... 4°C
T.PUNKTU ROSY.... 3°C
WILGOTNOŚĆ....... 93%
T.ODCZUWALNA..... 1°C
CIŚNIENIE........ 1020 hPa
CIŚN.BEZWZGL..... 1005 hPa

Sprawdź też: Prognoza pogody Wrocław


Katowice-Pyrzowice (EPKT)

METAR = EPKT 170830Z 27006KT 2800 -RA BR OVC003 03/03 Q1018

STACJA........... EPKT - Katowice-Pyrzowice (KTW)
POMIAR........... Sat Apr 17, 10:30 CEST
WIATR............ zachodni (W) z prędkością 11 km/h
WIDZIALNOŚĆ...... 2800 metrów
WARUNKI.......... słaby: deszcz & zamglenie 
CHMURY........... zachmurzenie całkowite (8/8)
TEMPERATURA...... 3°C
T.PUNKTU ROSY.... 3°C
WILGOTNOŚĆ....... 100%
T.ODCZUWALNA..... 0°C
CIŚNIENIE........ 1018 hPa
CIŚN.BEZWZGL..... 980 hPa

Sprawdź też: Prognoza pogody Katowice


Gdańsk (EPGD)

METAR = EPGD 170830Z 05007KT 010V090 CAVOK 10/04 Q1020

STACJA........... EPGD - Gdańsk im. Lecha Wałęsy (GDN)
POMIAR........... Sat Apr 17, 10:30 CEST
WIATR............ północno-wschodni (NE) z prędkością 13 km/h
WIDZIALNOŚĆ...... powyżej 10 kilometrów
CHMURY........... bezchmurne niebo
TEMPERATURA...... 10°C
T.PUNKTU ROSY.... 4°C
WILGOTNOŚĆ....... 67%
T.ODCZUWALNA..... 8°C
CIŚNIENIE........ 1020 hPa
CIŚN.BEZWZGL..... 1002 hPa

Sprawdź też: Prognoza pogody Gdańsk


Poznań-Ławica (EPPO)

METAR = EPPO 170830Z 30007KT 9999 BKN005 OVC037 06/04 Q1019

STACJA........... EPPO - Poznań-Ławica (POZ)
POMIAR........... Sat Apr 17, 10:30 CEST
WIATR............ zachodni północno-zachodni (WNW) z prędkością 13 km/h
WIDZIALNOŚĆ...... powyżej 10 kilometrów
CHMURY........... zachmurzenie całkowite (8/8)
TEMPERATURA...... 6°C
T.PUNKTU ROSY.... 4°C
WILGOTNOŚĆ....... 87%
T.ODCZUWALNA..... 3°C
CIŚNIENIE........ 1019 hPa
CIŚN.BEZWZGL..... 1007 hPa

Sprawdź też: Prognoza pogody Poznań


Rzeszów-Jasionka (EPRZ)

METAR = EPRZ 170830Z 25008KT 9999 OVC009 04/02 Q1019

STACJA........... EPRZ - Rzeszów-Jasionka (RZE)
POMIAR........... Sat Apr 17, 10:30 CEST
WIATR............ zachodni południowo-zachodni (WSW) z prędkością 15 km/h
WIDZIALNOŚĆ...... powyżej 10 kilometrów
CHMURY........... zachmurzenie całkowite (8/8)
TEMPERATURA...... 4°C
T.PUNKTU ROSY.... 2°C
WILGOTNOŚĆ....... 87%
T.ODCZUWALNA..... 1°C
CIŚNIENIE........ 1019 hPa
CIŚN.BEZWZGL..... 993 hPa

Sprawdź też: Prognoza pogody Rzeszów


Szczecin-Goleniów (EPSC)

METAR = EPSC 170830Z VRB05KT 9999 FEW007 09/06 Q1021

STACJA........... EPSC - Szczecin-Goleniów (SZZ)
POMIAR........... Sat Apr 17, 10:30 CEST
WIATR............ zmienny z prędkością 9 km/h
WIDZIALNOŚĆ...... powyżej 10 kilometrów
CHMURY........... zachmurzenie niewielkie (1/8-2/8)
TEMPERATURA...... 9°C
T.PUNKTU ROSY.... 6°C
WILGOTNOŚĆ....... 82%
T.ODCZUWALNA..... 7°C
CIŚNIENIE........ 1021 hPa
CIŚN.BEZWZGL..... 1015 hPa

Sprawdź też: Prognoza pogody Szczecin


Lublin-Świdnik (EPLB)

METAR = EPLB 170830Z 25006KT 5000 BR SCT003 OVC005 06/06 Q1018 =

STACJA........... EPLB - Lublin-Świdnik (LUZ)
POMIAR........... Sat Apr 17, 10:30 CEST
WIATR............ zachodni południowo-zachodni (WSW) z prędkością 11 km/h
WIDZIALNOŚĆ...... 5000 metrów
WARUNKI.......... zamglenie 
CHMURY........... zachmurzenie całkowite (8/8)
TEMPERATURA...... 6°C
T.PUNKTU ROSY.... 6°C
WILGOTNOŚĆ....... 100%
T.ODCZUWALNA..... 4°C
CIŚNIENIE........ 1018 hPa
CIŚN.BEZWZGL..... 993 hPa

Sprawdź też: Prognoza pogody Lublin


Bydgoszcz-Szwederowo (EPBY)

METAR = EPBY 170830Z 03005KT 350V060 CAVOK 10/05 Q1019=

STACJA........... EPBY - Bydgoszcz-Szwederowo (BZG)
POMIAR........... Sat Apr 17, 10:30 CEST
WIATR............ północno północno-wschodni (NNE) z prędkością 9 km/h
WIDZIALNOŚĆ...... powyżej 10 kilometrów
CHMURY........... bezchmurne niebo
TEMPERATURA...... 10°C
T.PUNKTU ROSY.... 5°C
WILGOTNOŚĆ....... 71%
T.ODCZUWALNA..... 9°C
CIŚNIENIE........ 1019 hPa
CIŚN.BEZWZGL..... 1010 hPa

Sprawdź też: Prognoza pogody Bydgoszcz


Zielona Góra-Babimost (EPZG)

METAR = EPZG 170830Z 30004KT 260V330 9999 SCT011 06/03 Q1021 =

STACJA........... EPZG - Zielona Góra-Babimost (IEG)
POMIAR........... Sat Apr 17, 10:30 CEST
WIATR............ zachodni północno-zachodni (WNW) z prędkością 7 km/h
WIDZIALNOŚĆ...... powyżej 10 kilometrów
CHMURY........... zachmurzenie małe (3/8-4/8)
TEMPERATURA...... 6°C
T.PUNKTU ROSY.... 3°C
WILGOTNOŚĆ....... 81%
T.ODCZUWALNA..... 4°C
CIŚNIENIE........ 1021 hPa
CIŚN.BEZWZGL..... 1014 hPa

Sprawdź też: Prognoza pogody Zielona Góra


Szymany Olsztyn-Mazury (EPSY)

METAR = EPSY 170830Z 05006KT 010V110 9999 BKN011 09/07 Q1019=

STACJA........... EPSY - Olsztyn-Mazury (SZY)
POMIAR........... Sat Apr 17, 10:30 CEST
WIATR............ północno-wschodni (NE) z prędkością 11 km/h
WIDZIALNOŚĆ...... powyżej 10 kilometrów
CHMURY........... zachmurzenie średnie (5/8-7/8)
TEMPERATURA...... 9°C
T.PUNKTU ROSY.... 7°C
WILGOTNOŚĆ....... 87%
T.ODCZUWALNA..... 7°C
CIŚNIENIE........ 1019 hPa
CIŚN.BEZWZGL..... 1002 hPa

Sprawdź też: Prognoza pogody Olsztyn


Cewice (EPCE)

METAR = EPCE 170830Z 02007KT 340V080 9999 SCT084 12/05 Q1020 RMK 116 065 4/4=

STACJA........... EPCE - Cewice
POMIAR........... Sat Apr 17, 10:30 CEST
WIATR............ północno północno-wschodni (NNE) z prędkością 13 km/h
WIDZIALNOŚĆ...... powyżej 10 kilometrów
CHMURY........... zachmurzenie małe (3/8-4/8)
TEMPERATURA...... 12°C
T.PUNKTU ROSY.... 5°C
WILGOTNOŚĆ....... 63%
CIŚNIENIE........ 1020 hPa
CIŚN.BEZWZGL..... 1002 hPa

Darłowo (EPDA)

METAR = EPDA 170830Z 02006KT 330V070 CAVOK 09/04 Q1021 RMK 088 074 0/0=

STACJA........... EPDA - Darłowo
POMIAR........... Sat Apr 17, 10:30 CEST
WIATR............ północno północno-wschodni (NNE) z prędkością 11 km/h
WIDZIALNOŚĆ...... powyżej 10 kilometrów
CHMURY........... bezchmurne niebo
TEMPERATURA...... 9°C
T.PUNKTU ROSY.... 4°C
WILGOTNOŚĆ....... 71%
T.ODCZUWALNA..... 7°C
CIŚNIENIE........ 1021 hPa
CIŚN.BEZWZGL..... 1021 hPa

Dęblin (EPDE)

METAR = EPDE 170830Z 20004KT 7000 OVC004 06/05 Q1018 RMK 060 093 8/8=

STACJA........... EPDE - Dęblin
POMIAR........... Sat Apr 17, 10:30 CEST
WIATR............ południowo południowo-zachodni  (SSW) z prędkością 7 km/h
WIDZIALNOŚĆ...... 7000 metrów
CHMURY........... zachmurzenie całkowite (8/8)
TEMPERATURA...... 6°C
T.PUNKTU ROSY.... 5°C
WILGOTNOŚĆ....... 93%
T.ODCZUWALNA..... 4°C
CIŚNIENIE........ 1018 hPa
CIŚN.BEZWZGL..... 1003 hPa

Inowrocław-Latkowo (EPIR)

METAR = EPIR 170830Z VRB02KT 9999 SCT010 BKN080 08/05 Q1018 RMK 079 084 6/3=

STACJA........... EPIR - Inowrocław-Latkowo
POMIAR........... Sat Apr 17, 10:30 CEST
WIATR............ zmienny z prędkością 4 km/h
WIDZIALNOŚĆ...... powyżej 10 kilometrów
CHMURY........... zachmurzenie średnie (5/8-7/8)
TEMPERATURA...... 8°C
T.PUNKTU ROSY.... 5°C
WILGOTNOŚĆ....... 82%
CIŚNIENIE........ 1018 hPa
CIŚN.BEZWZGL..... 1008 hPa

Poznań-Krzesiny (EPKS)

METAR = EPKS 170830Z 27008KT 9999 OVC006 05/05 Q1019 RMK 049 100 8/8=

STACJA........... EPKS - Poznań-Krzesiny
POMIAR........... Sat Apr 17, 10:30 CEST
WIATR............ zachodni (W) z prędkością 15 km/h
WIDZIALNOŚĆ...... powyżej 10 kilometrów
CHMURY........... zachmurzenie całkowite (8/8)
TEMPERATURA...... 5°C
T.PUNKTU ROSY.... 5°C
WILGOTNOŚĆ....... 100%
T.ODCZUWALNA..... 2°C
CIŚNIENIE........ 1019 hPa
CIŚN.BEZWZGL..... 1009 hPa

Łask (EPLK)

METAR = EPLK 170830Z 30008KT 3000 BR OVC004 04/04 Q1018 RMK 044 100 8/8=

STACJA........... EPLK - Łask
POMIAR........... Sat Apr 17, 10:30 CEST
WIATR............ zachodni północno-zachodni (WNW) z prędkością 15 km/h
WIDZIALNOŚĆ...... 3000 metrów
WARUNKI.......... zamglenie 
CHMURY........... zachmurzenie całkowite (8/8)
TEMPERATURA...... 4°C
T.PUNKTU ROSY.... 4°C
WILGOTNOŚĆ....... 100%
T.ODCZUWALNA..... 1°C
CIŚNIENIE........ 1018 hPa
CIŚN.BEZWZGL..... 994 hPa

Łęczyca (EPLY)

METAR = EPLY 170830Z NIL=

STACJA........... EPLY - Łęczyca
POMIAR........... Sat Apr 17, 10:30 CEST
DEPESZA.......... brak aktualnej prognozy w treści depeszy

Malbork (EPMB)

METAR = EPMB 170830Z 35006KT 310V020 9999 BKN080 11/08 Q1020 RMK 109 080 6/6=

STACJA........... EPMB - Malbork
POMIAR........... Sat Apr 17, 10:30 CEST
WIATR............ północny (N) z prędkością 11 km/h
WIDZIALNOŚĆ...... powyżej 10 kilometrów
CHMURY........... zachmurzenie średnie (5/8-7/8)
TEMPERATURA...... 11°C
T.PUNKTU ROSY.... 8°C
WILGOTNOŚĆ....... 82%
CIŚNIENIE........ 1020 hPa
CIŚN.BEZWZGL..... 1019 hPa

Mirosławiec (EPMI)

METAR = EPMI 170830Z 32006KT 9999 BKN050 07/05 Q1020 RMK 074 083 7/7=

STACJA........... EPMI - Mirosławiec
POMIAR........... Sat Apr 17, 10:30 CEST
WIATR............ północno zachodni (NW) z prędkością 11 km/h
WIDZIALNOŚĆ...... powyżej 10 kilometrów
CHMURY........... zachmurzenie średnie (5/8-7/8)
TEMPERATURA...... 7°C
T.PUNKTU ROSY.... 5°C
WILGOTNOŚĆ....... 87%
T.ODCZUWALNA..... 5°C
CIŚNIENIE........ 1020 hPa
CIŚN.BEZWZGL..... 1002 hPa

Mińsk Mazowiecki (EPMM)

METAR = EPMM 170830Z 12004KT 1500 BR OVC003 08/08 Q1017 RMK 077 100 8/8=

STACJA........... EPMM - Mińsk Mazowiecki
POMIAR........... Sat Apr 17, 10:30 CEST
WIATR............ wschodni południowo-wschodni (ESE) z prędkością 7 km/h
WIDZIALNOŚĆ...... 1500 metrów
WARUNKI.......... zamglenie 
CHMURY........... zachmurzenie całkowite (8/8)
TEMPERATURA...... 8°C
T.PUNKTU ROSY.... 8°C
WILGOTNOŚĆ....... 100%
T.ODCZUWALNA..... 7°C
CIŚNIENIE........ 1017 hPa
CIŚN.BEZWZGL..... 995 hPa

Nadarzyce (EPNA)

METAR = EPNA 170830Z NIL=

STACJA........... EPNA - Nadarzyce
POMIAR........... Sat Apr 17, 10:30 CEST
DEPESZA.......... brak aktualnej prognozy w treści depeszy

Gdynia-Kosakowo (EPOK)

METAR = EPOK 170830Z 02005KT 350V050 9999 BKN084 07/04 Q1021 RMK 067 081 7/7=

STACJA........... EPOK - Gdynia-Kosakowo
POMIAR........... Sat Apr 17, 10:30 CEST
WIATR............ północno północno-wschodni (NNE) z prędkością 9 km/h
WIDZIALNOŚĆ...... powyżej 10 kilometrów
CHMURY........... zachmurzenie średnie (5/8-7/8)
TEMPERATURA...... 7°C
T.PUNKTU ROSY.... 4°C
WILGOTNOŚĆ....... 81%
T.ODCZUWALNA..... 6°C
CIŚNIENIE........ 1021 hPa
CIŚN.BEZWZGL..... 1015 hPa

Pruszcz Gdański (EPPR)

METAR = EPPR 170830Z NIL=

STACJA........... EPPR - Pruszcz Gdański
POMIAR........... Sat Apr 17, 10:30 CEST
DEPESZA.......... brak aktualnej prognozy w treści depeszy

Powidz (EPPW)

METAR = EPPW 170830Z 32004KT 9999 OVC007 06/06 Q1019 RMK 061 100 8/8=

STACJA........... EPPW - Powidz
POMIAR........... Sat Apr 17, 10:30 CEST
WIATR............ północno zachodni (NW) z prędkością 7 km/h
WIDZIALNOŚĆ...... powyżej 10 kilometrów
CHMURY........... zachmurzenie całkowite (8/8)
TEMPERATURA...... 6°C
T.PUNKTU ROSY.... 6°C
WILGOTNOŚĆ....... 100%
T.ODCZUWALNA..... 4°C
CIŚNIENIE........ 1019 hPa
CIŚN.BEZWZGL..... 1005 hPa

Radom-Sadków (EPRA)

METAR = EPRA 170830Z 26004KT 6000 -DZ OVC005 05/05 Q1018 RMK 053 096 8/8=

STACJA........... EPRA - Radom-Sadków
POMIAR........... Sat Apr 17, 10:30 CEST
WIATR............ zachodni (W) z prędkością 7 km/h
WIDZIALNOŚĆ...... 6000 metrów
WARUNKI.......... słaby: mżawka 
CHMURY........... zachmurzenie całkowite (8/8)
TEMPERATURA...... 5°C
T.PUNKTU ROSY.... 5°C
WILGOTNOŚĆ....... 100%
T.ODCZUWALNA..... 3°C
CIŚNIENIE........ 1018 hPa
CIŚN.BEZWZGL..... 995 hPa

Świdwin (EPSN)

METAR = EPSN 170830Z 35006KT 310V040 9999 SCT056 10/03 Q1020 RMK 100 063 3/3=

STACJA........... EPSN - Świdwin
POMIAR........... Sat Apr 17, 10:30 CEST
WIATR............ północny (N) z prędkością 11 km/h
WIDZIALNOŚĆ...... powyżej 10 kilometrów
CHMURY........... zachmurzenie małe (3/8-4/8)
TEMPERATURA...... 10°C
T.PUNKTU ROSY.... 3°C
WILGOTNOŚĆ....... 62%
T.ODCZUWALNA..... 8°C
CIŚNIENIE........ 1020 hPa
CIŚN.BEZWZGL..... 1006 hPa

Tomaszów Mazowiecki (EPTM)

METAR = EPTM 170830Z NIL=

STACJA........... EPTM - Tomaszów Mazowiecki
POMIAR........... Sat Apr 17, 10:30 CEST
DEPESZA.......... brak aktualnej prognozy w treści depeszy